Turbat Weather



Turbat's Current Weather

Temprature 23.38o broken clouds

broken clouds

Rain: 0 %

Min Temprature23.38o
Max Temprature23.38o
Humidity38
Wind Speed2.27 m/h
Sun Rise07:14:05
Sun Set18:47:41
Current Time: 27-Feb-2020 00:05:18
Lat/Lon: 26, 63.04




Turbat's Geo Location



Turbat's Weather Forecast

Time Overall Temp Min Temp Max Temp Humidity Wind Speed Rain
27-Feb-2020 (Thu)
02:00:00 broken clouds 19.880 19.880 19.880 57 0.71 m/h 0 %
05:00:00 scattered clouds 18.400 18.400 18.400 65 1.24 m/h 0 %
08:00:00 clear sky 19.440 19.440 19.440 63 0.12 m/h 0 %
11:00:00 clear sky 24.450 24.450 24.450 40 2.18 m/h 0 %
14:00:00 clear sky 29.000 29.000 29.000 28 5.04 m/h 0 %
17:00:00 clear sky 30.460 30.460 30.460 26 6.29 m/h 0 %
20:00:00 clear sky 23.660 23.660 23.660 61 5.22 m/h 0 %
23:00:00 clear sky 22.710 22.710 22.710 66 0.59 m/h 0 %
28-Feb-2020 (Fri)
02:00:00 clear sky 21.060 21.060 21.060 72 0.54 m/h 0 %
05:00:00 clear sky 21.470 21.470 21.470 33 5.27 m/h 0 %
08:00:00 clear sky 20.160 20.160 20.160 31 4.9 m/h 0 %
11:00:00 clear sky 27.420 27.420 27.420 17 7.15 m/h 0 %
14:00:00 clear sky 29.900 29.900 29.900 13 5.36 m/h 0 %
17:00:00 clear sky 28.780 28.780 28.780 14 8.26 m/h 0 %
20:00:00 clear sky 24.520 24.520 24.520 17 8.99 m/h 0 %
23:00:00 clear sky 22.380 22.380 22.380 20 6.35 m/h 0 %
29-Feb-2020 (Sat)
02:00:00 clear sky 20.450 20.450 20.450 24 4.7 m/h 0 %
05:00:00 clear sky 18.720 18.720 18.720 29 3.63 m/h 0 %
08:00:00 clear sky 18.610 18.610 18.610 29 3.95 m/h 0 %
11:00:00 clear sky 26.000 26.000 26.000 15 6.24 m/h 0 %
14:00:00 clear sky 28.700 28.700 28.700 10 1.52 m/h 0 %
17:00:00 clear sky 29.830 29.830 29.830 9 0.13 m/h 0 %
20:00:00 clear sky 24.670 24.670 24.670 15 1.79 m/h 0 %
23:00:00 clear sky 21.440 21.440 21.440 37 3.23 m/h 0 %
01-Mar-2020 (Sun)
02:00:00 clear sky 18.960 18.960 18.960 46 0.73 m/h 0 %
05:00:00 clear sky 18.010 18.010 18.010 38 1.11 m/h 0 %
08:00:00 clear sky 19.480 19.480 19.480 23 1.77 m/h 0 %
11:00:00 clear sky 25.880 25.880 25.880 15 0.95 m/h 0 %
14:00:00 clear sky 29.330 29.330 29.330 11 3.37 m/h 0 %
17:00:00 clear sky 29.540 29.540 29.540 13 4.09 m/h 0 %
20:00:00 clear sky 24.600 24.600 24.600 24 5.93 m/h 0 %
23:00:00 clear sky 21.340 21.340 21.340 34 1.96 m/h 0 %
02-Mar-2020 (Mon)
02:00:00 clear sky 18.860 18.860 18.860 42 0.97 m/h 0 %
05:00:00 clear sky 16.870 16.870 16.870 54 0.75 m/h 0 %
08:00:00 clear sky 18.450 18.450 18.450 55 1.24 m/h 0 %
11:00:00 clear sky 23.680 23.680 23.680 35 2.93 m/h 0 %
14:00:00 clear sky 27.610 27.610 27.610 26 5.78 m/h 0 %
17:00:00 clear sky 28.890 28.890 28.890 25 7 m/h 0 %
20:00:00 clear sky 24.020 24.020 24.020 40 6.15 m/h 0 %
23:00:00 clear sky 20.840 20.840 20.840 62 2.62 m/h 0 %

Famous Cities (61)